Time;durP1;ratioP1;P1;durP2;ratioP2;P2;SDS_P1;SDS_P2;PMS_P1;PMS_P2;Temp;Humidity;BMP_temperature;BMP_pressure;BME280_temperature;BME280_humidity;BME280_pressure;Samples;Min_cycle;Max_cycle;Signal;HPM_P1;HPM_P2
2021/01/07 00:01:23;;;;;;;49.92;26.45;;;;;;;4.64;78.10;101199.94;4932289;29;20535;-61
2021/01/07 00:03:50;;;;;;;51.13;26.13;;;;;;;4.45;79.46;101203.06;4935995;29;20059;-61
2021/01/07 00:06:18;;;;;;;54.13;28.33;;;;;;;4.60;79.63;101203.16;4930649;29;20052;-65
2021/01/07 00:08:47;;;;;;;57.85;29.73;;;;;;;4.94;78.93;101200.09;4921327;29;20055;-62
2021/01/07 00:11:15;;;;;;;60.45;31.10;;;;;;;4.60;79.61;101196.91;4929976;29;20056;-61
2021/01/07 00:13:46;;;;;;;56.80;29.23;;;;;;;4.77;79.80;101203.00;4932786;29;20063;-64
2021/01/07 00:16:15;;;;;;;62.85;30.08;;;;;;;4.37;81.06;101203.56;4928049;29;20059;-63
2021/01/07 00:18:43;;;;;;;62.17;31.08;;;;;;;4.29;82.02;101201.28;4938045;29;20071;-61
2021/01/07 00:21:14;;;;;;;57.97;28.58;;;;;;;4.37;82.30;101202.72;4939840;29;20066;-63
2021/01/07 00:23:44;;;;;;;59.35;29.23;;;;;;;4.28;83.00;101199.66;4935873;29;20048;-61
2021/01/07 00:26:12;;;;;;;58.85;28.30;;;;;;;4.59;82.37;101212.44;4935008;29;20052;-62
2021/01/07 00:28:43;;;;;;;57.92;28.15;;;;;;;4.62;81.33;101202.88;4932297;29;20067;-62
2021/01/07 00:31:10;;;;;;;57.47;28.50;;;;;;;4.59;81.44;101198.81;4931861;29;20047;-61
2021/01/07 00:33:38;;;;;;;62.15;29.38;;;;;;;4.51;82.08;101203.94;4934684;29;20129;-62
2021/01/07 00:36:08;;;;;;;58.00;29.05;;;;;;;4.89;80.96;101200.06;4936003;29;20055;-63
2021/01/07 00:38:39;;;;;;;59.92;28.67;;;;;;;4.83;80.83;101203.88;4931724;29;20397;-61
2021/01/07 00:41:06;;;;;;;58.22;27.83;;;;;;;4.39;81.94;101204.09;4919729;29;20395;-61
2021/01/07 00:43:34;;;;;;;59.22;27.42;;;;;;;4.51;82.08;101204.75;4917880;29;20432;-63
2021/01/07 00:46:02;;;;;;;56.35;26.70;;;;;;;4.43;82.51;101199.78;4919449;29;20058;-61
2021/01/07 00:48:29;;;;;;;61.33;29.17;;;;;;;4.25;82.11;101205.59;4933967;29;20492;-61
2021/01/07 00:50:56;;;;;;;55.17;27.35;;;;;;;4.22;83.22;101202.59;4931690;29;20059;-62
2021/01/07 00:53:36;;;;;;;56.88;27.52;;;;;;;4.24;83.79;101203.16;4920599;29;20063;-62
2021/01/07 00:56:04;;;;;;;53.83;27.40;;;;;;;4.47;83.05;101200.91;4918544;29;20058;-62
2021/01/07 00:58:48;;;;;;;55.28;27.90;;;;;;;4.45;82.21;101205.78;4917313;29;20514;-62
2021/01/07 01:01:24;;;;;;;50.80;24.98;;;;;;;4.29;82.43;101209.47;4914969;29;20047;-63
2021/01/07 01:04:18;;;;;;;56.95;28.17;;;;;;;4.11;83.26;101201.69;4923365;29;20056;-62
2021/01/07 01:06:54;;;;;;;51.03;25.92;;;;;;;4.52;82.05;101203.66;4934201;29;20388;-61
2021/01/07 01:09:21;;;;;;;52.45;26.23;;;;;;;4.30;81.36;101200.22;4934559;29;20048;-62
2021/01/07 01:11:48;;;;;;;53.92;25.92;;;;;;;4.14;82.11;101206.63;4933242;29;20063;-63
2021/01/07 01:14:18;;;;;;;52.72;26.50;;;;;;;4.28;82.53;101207.00;4917016;29;20515;-62
2021/01/07 01:16:49;;;;;;;54.03;27.50;;;;;;;4.24;81.79;101206.69;4935028;29;20058;-63
2021/01/07 01:19:18;;;;;;;51.38;25.38;;;;;;;4.19;82.08;101208.56;4932772;29;20058;-62
2021/01/07 01:21:52;;;;;;;50.25;25.67;;;;;;;3.96;82.24;101212.44;4934586;29;20043;-62
2021/01/07 01:24:20;;;;;;;48.25;24.10;;;;;;;4.08;82.43;101206.84;4934732;29;20055;-61
2021/01/07 01:26:52;;;;;;;51.83;25.83;;;;;;;4.18;82.46;101201.47;4933225;29;20044;-62
2021/01/07 01:29:23;;;;;;;48.53;24.13;;;;;;;4.08;81.29;101207.66;4926938;29;20483;-62
2021/01/07 01:31:52;;;;;;;54.55;27.02;;;;;;;3.96;81.71;101198.81;4934199;29;20060;-62
2021/01/07 01:34:24;;;;;;;48.00;24.83;;;;;;;3.87;81.40;101208.53;4934377;29;20062;-60
2021/01/07 01:36:52;;;;;;;52.63;25.73;;;;;;;3.83;82.39;101209.31;4926355;29;20508;-64
2021/01/07 01:39:26;;;;;;;55.90;27.42;;;;;;;3.84;82.47;101211.78;4927723;29;20052;-63
2021/01/07 01:41:55;;;;;;;52.95;25.85;;;;;;;3.66;82.73;101203.94;4931741;29;20044;-62
2021/01/07 01:44:25;;;;;;;49.88;26.35;;;;;;;3.98;82.48;101204.84;4929988;29;20063;-61
2021/01/07 01:46:56;;;;;;;48.95;24.33;;;;;;;4.25;81.51;101204.81;4933217;29;20058;-62
2021/01/07 01:49:30;;;;;;;46.85;23.23;;;;;;;4.16;80.81;101209.09;4926156;29;20048;-63
2021/01/07 01:52:01;;;;;;;50.20;25.83;;;;;;;4.29;80.45;101209.47;4933363;29;20060;-62
2021/01/07 01:54:28;;;;;;;46.58;23.90;;;;;;;4.39;80.12;101214.19;4929330;29;20381;-63
2021/01/07 01:57:16;;;;;;;46.10;23.67;;;;;;;4.38;79.23;101205.19;4931906;29;20419;-62
2021/01/07 01:59:43;;;;;;;41.35;23.15;;;;;;;4.45;78.45;101219.44;4933970;29;20056;-62
2021/01/07 02:02:15;;;;;;;42.20;22.90;;;;;;;4.18;77.43;101215.09;4929159;29;20047;-62
2021/01/07 02:04:55;;;;;;;41.45;21.42;;;;;;;4.33;78.19;101216.06;4923852;29;20047;-62
2021/01/07 02:07:26;;;;;;;46.38;21.13;;;;;;;4.26;78.29;101214.63;4930369;29;20063;-62
2021/01/07 02:10:07;;;;;;;41.88;22.05;;;;;;;4.24;77.48;101216.78;4930489;29;20062;-62
2021/01/07 02:12:35;;;;;;;41.72;22.60;;;;;;;4.13;78.09;101220.50;4932284;29;20051;-61
2021/01/07 02:15:09;;;;;;;40.78;21.13;;;;;;;3.97;77.84;101214.09;4918679;29;20385;-62
2021/01/07 02:17:37;;;;;;;42.80;21.77;;;;;;;3.89;77.46;101219.19;4933970;29;20167;-64
2021/01/07 02:20:22;;;;;;;41.00;21.95;;;;;;;3.78;78.60;101214.72;4932911;29;20058;-63
2021/01/07 02:22:54;;;;;;;41.05;21.85;;;;;;;4.17;78.48;101221.63;4931933;29;20056;-63
2021/01/07 02:25:28;;;;;;;42.75;22.17;;;;;;;4.24;77.79;101217.59;4928144;29;20063;-63
2021/01/07 02:28:18;;;;;;;39.13;22.02;;;;;;;4.57;76.57;101214.59;4920449;29;20075;-63
2021/01/07 02:30:48;;;;;;;41.15;22.05;;;;;;;4.65;76.25;101215.19;4932857;29;20060;-62
2021/01/07 02:33:15;;;;;;;42.20;22.85;;;;;;;4.53;76.30;101207.22;4934031;29;20119;-61
2021/01/07 02:35:41;;;;;;;41.00;21.33;;;;;;;4.72;75.62;101207.63;4932751;29;20054;-63
2021/01/07 02:38:11;;;;;;;41.25;22.10;;;;;;;4.66;75.82;101197.72;4932436;29;20052;-61
2021/01/07 02:40:41;;;;;;;39.30;22.45;;;;;;;4.62;76.12;101211.06;4931309;29;20504;-61
2021/01/07 02:43:23;;;;;;;40.28;21.42;;;;;;;4.46;76.16;101209.34;4930288;29;20503;-62
2021/01/07 02:45:50;;;;;;;45.35;21.80;;;;;;;4.36;77.28;101212.81;4928420;29;20056;-64
2021/01/07 02:48:21;;;;;;;41.05;22.92;;;;;;;4.20;77.66;101213.75;4933493;29;20059;-62
2021/01/07 02:51:01;;;;;;;42.03;22.30;;;;;;;4.36;77.56;101210.06;4926633;29;20598;-62
2021/01/07 02:53:30;;;;;;;39.45;21.00;;;;;;;4.57;76.85;101200.13;4933853;29;20055;-63
2021/01/07 02:56:14;;;;;;;46.92;23.92;;;;;;;4.73;76.43;101203.78;4936274;29;20063;-60
2021/01/07 02:58:41;;;;;;;41.33;22.50;;;;;;;4.46;75.72;101198.44;4929938;29;20047;-63
2021/01/07 03:01:14;;;;;;;41.28;22.05;;;;;;;4.01;77.17;101198.84;4923566;29;20158;-59
2021/01/07 03:04:01;;;;;;;47.25;23.10;;;;;;;4.10;77.39;101197.31;4927633;29;20412;-63
2021/01/07 03:06:48;;;;;;;40.88;22.75;;;;;;;4.31;77.58;101190.94;4936553;29;20423;-61
2021/01/07 03:09:15;;;;;;;40.60;21.92;;;;;;;4.42;77.33;101192.69;4937217;29;20058;-61
2021/01/07 03:11:42;;;;;;;46.13;23.50;;;;;;;4.46;76.77;101193.78;4936340;29;20055;-62
2021/01/07 03:14:12;;;;;;;43.50;23.27;;;;;;;4.41;76.56;101188.28;4933227;29;20048;-62
2021/01/07 03:16:48;;;;;;;43.83;22.27;;;;;;;4.54;76.61;101187.03;4934876;29;20130;-64
2021/01/07 03:19:31;;;;;;;41.33;22.40;;;;;;;4.52;76.12;101186.47;4936433;29;20059;-62
2021/01/07 03:21:58;;;;;;;41.50;22.85;;;;;;;4.38;75.68;101180.63;4929732;29;20423;-64
2021/01/07 03:24:25;;;;;;;45.10;23.95;;;;;;;4.34;76.10;101174.06;4936617;29;20059;-64
2021/01/07 03:27:00;;;;;;;40.28;22.25;;;;;;;4.27;77.07;101178.91;4937190;29;20060;-64
2021/01/07 03:29:31;;;;;;;39.72;22.20;;;;;;;4.26;76.52;101180.00;4930534;29;20058;-65
2021/01/07 03:32:02;;;;;;;41.45;22.23;;;;;;;4.16;76.10;101176.38;4934134;29;20052;-64
2021/01/07 03:34:29;;;;;;;42.45;22.75;;;;;;;4.32;76.82;101180.88;4936638;29;20062;-63
2021/01/07 03:37:00;;;;;;;43.53;22.27;;;;;;;4.42;76.67;101173.59;4940289;29;20526;-63
2021/01/07 03:39:27;;;;;;;45.13;23.92;;;;;;;4.07;77.70;101175.19;4949557;29;20052;-61
2021/01/07 03:41:54;;;;;;;45.75;22.70;;;;;;;4.06;77.73;101171.63;4926993;29;20056;-62
2021/01/07 03:44:20;;;;;;;46.67;23.65;;;;;;;4.10;78.26;101175.50;4920417;29;20056;-62
2021/01/07 03:46:48;;;;;;;44.70;23.48;;;;;;;3.93;78.64;101179.44;4935862;29;20056;-63
2021/01/07 03:49:18;;;;;;;46.08;23.75;;;;;;;4.19;78.50;101175.84;4935885;29;20052;-63
2021/01/07 03:51:51;;;;;;;44.97;23.20;;;;;;;4.43;76.98;101179.84;4918581;29;20052;-62
2021/01/07 03:54:18;;;;;;;49.20;24.05;;;;;;;4.02;78.06;101181.44;4930962;29;20055;-63
2021/01/07 03:56:45;;;;;;;51.25;24.45;;;;;;;3.93;79.04;101179.44;4916711;29;20056;-62
2021/01/07 03:59:24;;;;;;;46.20;23.65;;;;;;;4.11;78.55;101179.06;4931049;29;20055;-61
2021/01/07 04:01:52;;;;;;;45.00;23.95;;;;;;;4.38;78.73;101180.63;4933713;29;20122;-65
2021/01/07 04:04:19;;;;;;;55.00;24.48;;;;;;;3.99;78.15;101179.22;4932211;29;20062;-63
2021/01/07 04:06:49;;;;;;;48.72;24.08;;;;;;;3.93;78.81;101180.25;4935824;29;20048;-64
2021/01/07 04:09:29;;;;;;;49.13;25.33;;;;;;;4.11;78.09;101170.88;4937035;29;20071;-62
2021/01/07 04:12:04;;;;;;;47.33;23.98;;;;;;;4.35;77.52;101167.53;4916843;29;20496;-63
2021/01/07 04:14:51;;;;;;;44.95;22.98;;;;;;;4.25;77.60;101169.38;4927410;29;20407;-64
2021/01/07 04:17:19;;;;;;;45.00;23.13;;;;;;;4.27;78.06;101175.38;4936674;29;20483;-63
2021/01/07 04:19:51;;;;;;;43.67;23.80;;;;;;;4.43;77.03;101172.50;4932819;29;20522;-63
2021/01/07 04:22:38;;;;;;;49.17;24.58;;;;;;;4.23;77.04;101175.09;4933975;29;20055;-63
2021/01/07 04:25:11;;;;;;;47.78;25.00;;;;;;;4.18;77.29;101174.22;4936667;29;20056;-62
2021/01/07 04:27:41;;;;;;;49.78;25.25;;;;;;;4.07;77.86;101177.94;4934302;29;20129;-63
2021/01/07 04:30:08;;;;;;;48.08;25.50;;;;;;;3.59;79.47;101178.00;4929868;29;20055;-63
2021/01/07 04:32:35;;;;;;;50.42;25.30;;;;;;;3.84;78.99;101176.34;4930517;29;20048;-62
2021/01/07 04:35:06;;;;;;;49.05;25.15;;;;;;;3.79;79.68;101175.47;4932994;29;20063;-63
2021/01/07 04:37:33;;;;;;;47.20;24.75;;;;;;;3.47;80.00;101174.59;4934267;29;20053;-63
2021/01/07 04:40:00;;;;;;;50.17;25.42;;;;;;;3.60;80.79;101171.47;4929957;29;20051;-62
2021/01/07 04:42:33;;;;;;;50.13;25.88;;;;;;;3.64;80.54;101170.72;4928287;29;20058;-63
2021/01/07 04:45:01;;;;;;;47.90;24.55;;;;;;;3.70;80.74;101169.66;4936187;29;20408;-61
2021/01/07 04:47:28;;;;;;;46.85;25.25;;;;;;;4.07;79.65;101167.03;4933045;29;20483;-61
2021/01/07 04:49:59;;;;;;;48.47;24.13;;;;;;;4.13;79.35;101166.00;4934952;29;20063;-61
2021/01/07 04:52:27;;;;;;;44.65;24.20;;;;;;;4.16;78.59;101168.19;4919317;29;20056;-61
2021/01/07 04:54:54;;;;;;;43.45;23.88;;;;;;;4.00;78.79;101160.97;4931456;29;20547;-62
2021/01/07 04:57:21;;;;;;;49.92;24.92;;;;;;;4.13;78.45;101161.34;4912024;29;20057;-61
2021/01/07 04:59:48;;;;;;;48.90;25.83;;;;;;;3.99;79.50;101167.50;4914950;29;20129;-63
2021/01/07 05:02:24;;;;;;;50.47;25.45;;;;;;;3.93;79.10;101154.91;4934722;29;20055;-62
2021/01/07 05:04:52;;;;;;;46.13;25.02;;;;;;;3.90;78.92;101161.72;4901001;29;20056;-64
2021/01/07 05:07:22;;;;;;;52.45;26.48;;;;;;;3.65;80.34;101147.84;4936168;29;20052;-63
2021/01/07 05:10:09;;;;;;;50.10;26.27;;;;;;;3.67;80.04;101150.28;4927861;29;20533;-63
2021/01/07 05:12:37;;;;;;;50.67;25.92;;;;;;;3.65;81.03;101145.13;4927602;29;20052;-60
2021/01/07 05:15:16;;;;;;;49.10;25.25;;;;;;;3.58;80.95;101147.22;4934837;29;20136;-61
2021/01/07 05:17:45;;;;;;;51.50;26.08;;;;;;;3.68;80.67;101155.47;4933899;29;20055;-63
2021/01/07 05:20:12;;;;;;;48.60;26.02;;;;;;;3.58;81.41;101149.94;4935116;29;20051;-62
2021/01/07 05:22:43;;;;;;;52.03;25.67;;;;;;;3.74;80.66;101150.91;4933635;29;20048;-63
2021/01/07 05:25:17;;;;;;;54.00;27.13;;;;;;;3.82;80.81;101153.19;4933654;29;20051;-61
2021/01/07 05:27:44;;;;;;;55.72;26.52;;;;;;;3.93;79.95;101149.44;4933867;29;20044;-62
2021/01/07 05:30:18;;;;;;;51.00;27.38;;;;;;;3.67;81.24;101150.28;4910935;29;20067;-63
2021/01/07 05:33:01;;;;;;;;;;;;;;;3.64;80.85;101151.66;4920799;29;20383;-62
2021/01/07 05:35:28;;;;;;;49.75;26.25;;;;;;;3.89;80.17;101154.59;4932101;29;19923;-63
2021/01/07 05:38:08;;;;;;;54.05;26.83;;;;;;;4.05;79.77;101147.38;4932789;29;20415;-62
2021/01/07 05:40:49;;;;;;;50.30;26.50;;;;;;;4.10;79.37;101145.53;4936621;29;20376;-62
2021/01/07 05:43:16;;;;;;;51.50;26.75;;;;;;;4.20;78.45;101140.13;4917173;29;20055;-65
2021/01/07 05:46:07;;;;;;;;;;;;;;;4.06;79.00;101147.13;4928368;29;20055;-61
2021/01/07 05:48:33;;;;;;;50.33;25.48;;;;;;;4.02;78.75;101147.91;4934588;29;19923;-62
2021/01/07 05:51:04;;;;;;;52.35;26.73;;;;;;;3.63;80.09;101147.25;4934634;29;20048;-62
2021/01/07 05:53:45;;;;;;;54.55;27.48;;;;;;;3.73;80.36;101139.19;4916178;29;20059;-61
2021/01/07 05:56:21;;;;;;;49.75;26.00;;;;;;;3.80;79.83;101134.34;4934822;29;20063;-62
2021/01/07 05:58:49;;;;;;;54.75;26.27;;;;;;;3.76;79.95;101149.59;4932476;29;20052;-62
2021/01/07 06:01:17;;;;;;;54.47;26.85;;;;;;;3.58;80.28;101147.22;4917019;29;20395;-62
2021/01/07 06:03:48;;;;;;;48.72;27.00;;;;;;;3.75;80.60;101147.13;4934369;29;20431;-62
2021/01/07 06:06:17;;;;;;;52.58;27.20;;;;;;;4.06;79.38;101149.84;4933952;29;20048;-63
2021/01/07 06:08:54;;;;;;;52.63;26.70;;;;;;;3.74;79.33;101148.19;4929017;29;20530;-60
2021/01/07 06:11:24;;;;;;;50.33;26.77;;;;;;;3.87;79.51;101148.56;4917599;29;20048;-63
2021/01/07 06:13:53;;;;;;;55.58;27.83;;;;;;;3.94;79.39;101148.38;4933406;29;20047;-62
2021/01/07 06:16:27;;;;;;;54.58;26.33;;;;;;;4.03;79.60;101152.25;4933587;29;20056;-62
2021/01/07 06:19:29;;;;;;;48.35;24.13;;;;;;;4.30;78.79;101151.16;4934927;29;20131;-61
2021/01/07 06:22:01;;;;;;;51.95;25.88;;;;;;;4.20;78.36;101151.03;4926984;29;20055;-60
2021/01/07 06:24:36;;;;;;;52.15;27.17;;;;;;;4.17;78.40;101157.03;4947285;29;20054;-62
2021/01/07 06:27:33;;;;;;;49.65;26.67;;;;;;;3.96;78.43;101166.09;4844508;29;20061;-65
2021/01/07 06:30:21;;;;;;;49.92;26.67;;;;;;;4.38;78.31;101167.00;4863405;29;20069;-62
2021/01/07 06:33:02;;;;;;;48.60;25.90;;;;;;;4.03;79.07;101163.16;4937062;29;20491;-62
2021/01/07 06:35:33;;;;;;;54.35;27.17;;;;;;;3.94;78.78;101167.47;4936725;29;20064;-62
2021/01/07 06:38:10;;;;;;;51.97;27.55;;;;;;;4.17;78.66;101165.19;4926684;29;20052;-64
2021/01/07 06:40:41;;;;;;;61.13;28.33;;;;;;;3.93;79.21;101171.25;4902249;29;20052;-63
2021/01/07 06:43:18;;;;;;;57.60;28.17;;;;;;;3.97;80.50;101170.50;4919036;29;20052;-63
2021/01/07 06:45:53;;;;;;;59.30;28.63;;;;;;;3.99;79.90;101176.47;4917524;29;20071;-61
2021/01/07 06:48:26;;;;;;;58.63;28.48;;;;;;;3.89;80.39;101173.66;4903565;29;20060;-61
2021/01/07 06:51:01;;;;;;;62.25;30.35;;;;;;;3.50;80.67;101169.47;4917238;29;20137;-63
2021/01/07 06:53:46;;;;;;;61.85;29.38;;;;;;;3.71;82.33;101165.88;4918892;29;20060;-62
2021/01/07 06:56:22;;;;;;;57.10;27.65;;;;;;;3.72;81.46;101164.78;4905788;29;20064;-63
2021/01/07 06:58:55;;;;;;;52.30;27.63;;;;;;;3.72;81.76;101167.53;4917623;29;20048;-62
2021/01/07 07:01:23;;;;;;;51.78;26.58;;;;;;;3.97;80.88;101173.22;4916662;29;20389;-63
2021/01/07 07:04:02;;;;;;;50.88;26.80;;;;;;;3.95;81.24;101169.94;4929399;29;20059;-64
2021/01/07 07:06:31;;;;;;;51.83;25.75;;;;;;;4.07;80.72;101165.13;4935739;29;20066;-63
2021/01/07 07:09:15;;;;;;;47.28;24.73;;;;;;;4.16;80.02;101160.00;4938031;29;20492;-63
2021/01/07 07:11:54;;;;;;;54.25;26.90;;;;;;;4.28;79.24;101160.66;4916108;29;20058;-63
2021/01/07 07:14:22;;;;;;;53.72;26.55;;;;;;;4.37;78.38;101164.53;4936859;29;20055;-63
2021/01/07 07:16:55;;;;;;;55.78;26.17;;;;;;;4.41;78.80;101162.94;4916820;29;20048;-61
2021/01/07 07:19:27;;;;;;;49.00;24.50;;;;;;;3.88;79.70;101158.41;4935798;29;20066;-63
2021/01/07 07:22:08;;;;;;;47.42;24.23;;;;;;;3.88;80.71;101163.88;4906354;29;20068;-65
2021/01/07 07:24:42;;;;;;;54.97;25.95;;;;;;;3.62;80.95;101158.41;4920203;29;20051;-62
2021/01/07 07:27:11;;;;;;;44.55;22.30;;;;;;;3.92;81.38;101169.63;4934726;29;20052;-63
2021/01/07 07:29:45;;;;;;;45.60;22.17;;;;;;;3.99;80.45;101170.22;4934230;29;20074;-63
2021/01/07 07:32:21;;;;;;;46.00;23.15;;;;;;;4.22;79.23;101176.16;4934524;29;20088;-62
2021/01/07 07:34:54;;;;;;;43.10;22.05;;;;;;;4.09;79.28;101176.59;4932877;29;20052;-64
2021/01/07 07:37:26;;;;;;;47.38;24.52;;;;;;;3.89;79.21;101175.59;4944738;29;20051;-63
2021/01/07 07:40:01;;;;;;;47.13;23.52;;;;;;;3.66;80.77;101173.19;4934883;29;20051;-62
2021/01/07 07:42:29;;;;;;;45.67;23.13;;;;;;;3.43;80.70;101175.09;4940457;29;20503;-63
2021/01/07 07:44:57;;;;;;;48.30;24.42;;;;;;;3.56;80.25;101170.34;4936031;29;20063;-64
2021/01/07 07:47:34;;;;;;;51.47;26.15;;;;;;;3.64;81.26;101184.34;4931609;29;20067;-63
2021/01/07 07:50:21;;;;;;;48.28;25.38;;;;;;;3.76;80.95;101171.38;4927463;29;20071;-66
2021/01/07 07:52:48;;;;;;;47.70;25.42;;;;;;;4.30;80.06;101186.59;4929613;29;20056;-65
2021/01/07 07:55:15;;;;;;;53.83;27.35;;;;;;;4.35;78.74;101185.78;4935457;29;20048;-64
2021/01/07 07:57:46;;;;;;;57.20;27.88;;;;;;;4.33;79.01;101187.97;4933888;29;20385;-64
2021/01/07 08:00:15;;;;;;;56.58;28.85;;;;;;;4.45;78.56;101183.13;4925940;29;20043;-63
2021/01/07 08:02:43;;;;;;;57.10;30.95;;;;;;;4.49;78.22;101187.81;4935182;29;20161;-65
2021/01/07 08:05:26;;;;;;;62.05;30.98;;;;;;;4.52;77.95;101183.72;4919571;29;20059;-65
2021/01/07 08:07:54;;;;;;;57.10;30.77;;;;;;;4.46;78.01;101192.97;4919273;29;20071;-63
2021/01/07 08:10:22;;;;;;;63.95;32.13;;;;;;;4.67;77.27;101192.03;4935621;29;20062;-65
2021/01/07 08:12:49;;;;;;;61.90;30.50;;;;;;;4.38;77.87;101190.72;4936244;29;20051;-64
2021/01/07 08:15:26;;;;;;;61.35;30.75;;;;;;;4.42;78.30;101200.03;4935953;29;20424;-63
2021/01/07 08:18:15;;;;;;;58.28;30.08;;;;;;;4.87;76.96;101197.59;4935440;29;20424;-62
2021/01/07 08:20:43;;;;;;;64.00;30.60;;;;;;;4.82;76.96;101200.31;4934348;29;20051;-63
2021/01/07 08:23:15;;;;;;;58.20;29.75;;;;;;;4.93;76.06;101195.75;4935317;29;20062;-64
2021/01/07 08:25:46;;;;;;;69.15;32.55;;;;;;;4.89;75.87;101200.06;4933006;29;20129;-64
2021/01/07 08:28:31;;;;;;;66.32;32.45;;;;;;;4.92;76.16;101203.09;4937522;29;20055;-64
2021/01/07 08:31:02;;;;;;;55.08;27.45;;;;;;;5.00;76.15;101208.06;4904892;29;20052;-63
2021/01/07 08:33:32;;;;;;;58.95;29.90;;;;;;;4.82;75.67;101203.03;4936387;29;20305;-64
2021/01/07 08:36:07;;;;;;;61.90;30.58;;;;;;;4.83;75.80;101212.06;4918957;29;20063;-63
2021/01/07 08:38:39;;;;;;;59.83;30.65;;;;;;;4.68;76.52;101204.59;4936372;29;20390;-64
2021/01/07 08:41:10;;;;;;;67.75;32.08;;;;;;;4.54;77.31;101211.56;4935050;29;20055;-64
2021/01/07 08:43:37;;;;;;;64.57;30.85;;;;;;;4.75;77.86;101215.25;4938848;29;20047;-64
2021/01/07 08:46:15;;;;;;;70.85;34.15;;;;;;;4.79;76.78;101208.22;4924459;29;20400;-63
2021/01/07 08:48:43;;;;;;;62.13;32.78;;;;;;;4.77;76.60;101204.91;4941170;29;20051;-63
2021/01/07 08:51:21;;;;;;;73.43;35.53;;;;;;;4.94;76.94;101213.75;4937175;29;20051;-63
2021/01/07 08:53:55;;;;;;;73.05;34.97;;;;;;;4.57;76.62;101208.31;4944007;29;20055;-62
2021/01/07 08:56:36;;;;;;;74.18;34.65;;;;;;;4.69;77.11;101214.41;4928109;29;20062;-66
2021/01/07 08:59:32;;;;;;;80.72;35.90;;;;;;;4.78;77.45;101214.75;4911723;29;20497;-63
2021/01/07 09:02:08;;;;;;;80.22;36.75;;;;;;;4.70;77.69;101221.53;4899894;29;20723;-63
2021/01/07 09:04:46;;;;;;;80.63;35.28;;;;;;;4.59;78.29;101226.09;4927418;29;20427;-62
2021/01/07 09:07:13;;;;;;;92.25;35.78;;;;;;;4.30;78.46;101221.22;4924290;29;20052;-63
2021/01/07 09:09:41;;;;;;;81.90;35.63;;;;;;;4.34;78.57;101219.63;4937357;29;20063;-63
2021/01/07 09:12:11;;;;;;;83.85;36.60;;;;;;;4.38;78.96;101226.16;4931029;29;20056;-63
2021/01/07 09:14:51;;;;;;;79.30;36.30;;;;;;;4.32;78.34;101229.97;4936830;29;20056;-65
2021/01/07 09:17:20;;;;;;;76.97;33.10;;;;;;;4.10;78.72;101221.84;4953589;29;20086;-64
2021/01/07 09:19:47;;;;;;;76.83;33.70;;;;;;;4.33;78.74;101234.31;4927838;29;20052;-63
2021/01/07 09:22:19;;;;;;;76.00;34.33;;;;;;;4.22;79.25;101233.41;4924152;29;20056;-63
2021/01/07 09:24:46;;;;;;;83.95;36.92;;;;;;;4.08;78.86;101236.81;4918512;29;20056;-63
2021/01/07 09:27:16;;;;;;;89.07;37.17;;;;;;;3.71;80.11;101242.16;4931435;29;20449;-63
2021/01/07 09:29:49;;;;;;;78.75;34.05;;;;;;;3.61;80.69;101241.22;4916351;29;20043;-65
2021/01/07 09:32:16;;;;;;;76.75;31.73;;;;;;;2.99;83.45;101236.06;4937191;29;20050;-64
2021/01/07 09:34:44;;;;;;;81.78;33.05;;;;;;;3.25;83.90;101235.34;4933025;29;20128;-63
2021/01/07 09:37:20;;;;;;;78.40;31.67;;;;;;;3.62;82.29;101232.78;4940330;29;20063;-63
2021/01/07 09:40:08;;;;;;;63.45;27.85;;;;;;;3.48;81.13;101239.69;4942180;29;20047;-63
2021/01/07 09:42:42;;;;;;;55.65;25.58;;;;;;;3.51;81.70;101241.06;4941367;29;20058;-62
2021/01/07 09:45:11;;;;;;;62.42;26.10;;;;;;;3.21;81.73;101245.06;4938110;29;20058;-61
2021/01/07 09:47:39;;;;;;;64.78;28.58;;;;;;;2.92;83.58;101243.59;4950640;29;20526;-63
2021/01/07 09:50:11;;;;;;;64.65;30.48;;;;;;;3.00;83.83;101248.59;4933661;29;20059;-62
2021/01/07 09:52:37;;;;;;;68.70;30.90;;;;;;;3.12;83.84;101252.03;4950610;29;20054;-63
2021/01/07 09:55:06;;;;;;;72.45;33.45;;;;;;;3.28;83.47;101250.31;4942103;29;20376;-63
2021/01/07 09:57:34;;;;;;;71.90;31.87;;;;;;;3.12;83.13;101251.22;4918230;29;20397;-63
2021/01/07 10:00:05;;;;;;;77.65;31.45;;;;;;;3.19;83.81;101257.31;4934401;29;20055;-62
2021/01/07 10:02:34;;;;;;;72.38;30.35;;;;;;;3.09;84.20;101254.41;4935661;29;20415;-63
2021/01/07 10:05:04;;;;;;;68.32;30.30;;;;;;;3.09;83.50;101263.41;4937766;29;20202;-64
2021/01/07 10:07:34;;;;;;;;;;;;;;;2.77;84.86;101258.88;4942052;28;20052;-63
2021/01/07 10:10:03;;;;;;;72.55;29.45;;;;;;;2.76;85.23;101259.91;4921934;29;19922;-63
2021/01/07 10:12:33;;;;;;;69.45;27.95;;;;;;;2.90;85.08;101255.78;4946844;29;20528;-62
2021/01/07 10:14:59;;;;;;;67.22;26.45;;;;;;;2.98;84.68;101256.16;4955112;28;20055;-63
2021/01/07 10:17:35;;;;;;;63.83;26.85;;;;;;;3.44;83.44;101254.91;4939341;29;20062;-63
2021/01/07 10:20:06;;;;;;;60.25;26.25;;;;;;;3.53;82.58;101253.38;4941814;29;20060;-63
2021/01/07 10:22:46;;;;;;;65.82;26.10;;;;;;;3.58;82.56;101256.16;4940540;29;20412;-64
2021/01/07 10:25:14;;;;;;;60.47;26.75;;;;;;;3.60;81.67;101255.91;4942173;28;20055;-62
2021/01/07 10:27:45;;;;;;;68.03;28.38;;;;;;;3.51;82.79;101252.81;4932782;29;20074;-64
2021/01/07 10:30:18;;;;;;;64.45;28.02;;;;;;;3.78;82.21;101250.97;4939308;29;20060;-64
2021/01/07 10:32:48;;;;;;;57.60;26.73;;;;;;;3.72;81.00;101248.41;4936264;29;20062;-64
2021/01/07 10:35:15;;;;;;;64.05;27.92;;;;;;;3.87;81.14;101248.59;4922769;29;20063;-63
2021/01/07 10:37:44;;;;;;;63.17;29.02;;;;;;;3.59;81.97;101251.53;4937932;29;20400;-65
2021/01/07 10:40:14;;;;;;;64.75;27.58;;;;;;;3.80;81.54;101239.81;4922240;29;20127;-63
2021/01/07 10:42:47;;;;;;;59.42;28.27;;;;;;;3.94;80.93;101244.56;4922835;29;20043;-64
2021/01/07 10:45:17;;;;;;;70.20;29.48;;;;;;;3.60;81.75;101247.72;4938532;29;20403;-64
2021/01/07 10:47:45;;;;;;;66.68;30.00;;;;;;;3.99;81.63;101246.53;4947681;29;20055;-62
2021/01/07 10:50:15;;;;;;;59.75;28.10;;;;;;;3.84;80.21;101247.19;4937253;29;20056;-64
2021/01/07 10:53:04;;;;;;;65.50;28.73;;;;;;;3.92;80.10;101237.75;4940336;29;20070;-63
2021/01/07 10:55:38;;;;;;;62.40;29.20;;;;;;;3.82;80.62;101234.94;4923366;29;20059;-63
2021/01/07 10:58:35;;;;;;;54.65;26.27;;;;;;;3.72;80.55;101234.78;4938489;29;20114;-64
2021/01/07 11:01:18;;;;;;;58.28;26.75;;;;;;;3.75;80.65;101235.09;4940469;29;20594;-64
2021/01/07 11:04:06;;;;;;;62.13;28.92;;;;;;;3.79;80.29;101222.63;4922753;29;20052;-63
2021/01/07 11:06:39;;;;;;;67.60;30.33;;;;;;;3.90;80.33;101226.28;4922578;29;20055;-64
2021/01/07 11:09:15;;;;;;;64.97;30.20;;;;;;;4.14;79.74;101222.16;4923655;29;20062;-64
2021/01/07 11:11:49;;;;;;;68.07;30.38;;;;;;;4.39;78.78;101216.94;4938293;29;20054;-63
2021/01/07 11:14:42;;;;;;;65.65;29.48;;;;;;;3.84;79.45;101219.94;4896730;29;20047;-64
2021/01/07 11:17:16;;;;;;;69.13;30.90;;;;;;;3.79;80.79;101217.19;4920174;29;20063;-65
2021/01/07 11:19:50;;;;;;;68.55;27.08;;;;;;;3.87;80.75;101218.63;4937037;29;20082;-64
2021/01/07 11:22:27;;;;;;;65.78;29.55;;;;;;;4.03;80.40;101213.06;4936219;29;20414;-64
2021/01/07 11:25:00;;;;;;;66.50;28.85;;;;;;;4.07;80.23;101211.47;4936863;29;20050;-62
2021/01/07 11:27:30;;;;;;;62.28;27.42;;;;;;;4.14;79.54;101203.91;4935670;29;20056;-64
2021/01/07 11:29:57;;;;;;;67.32;29.60;;;;;;;3.97;80.15;101202.38;4935416;29;20056;-63
2021/01/07 11:32:24;;;;;;;61.03;26.92;;;;;;;3.90;80.07;101186.22;4936125;29;20067;-64
2021/01/07 11:34:51;;;;;;;63.47;27.30;;;;;;;4.21;79.24;101190.88;4937063;29;20039;-64
2021/01/07 11:37:40;;;;;;;63.60;26.75;;;;;;;4.36;77.99;101181.97;4902837;29;20063;-65
2021/01/07 11:40:11;;;;;;;57.25;25.80;;;;;;;4.22;78.66;101178.88;4929356;29;20062;-65
2021/01/07 11:42:50;;;;;;;57.63;26.25;;;;;;;4.27;78.27;101175.38;4936359;29;20066;-65